Time;durP1;ratioP1;P1;durP2;ratioP2;P2;SDS_P1;SDS_P2;PMS_P1;PMS_P2;Temp;Humidity;BMP_temperature;BMP_pressure;BME280_temperature;BME280_humidity;BME280_pressure;Samples;Min_cycle;Max_cycle;Signal;HPM_P1;HPM_P2
2021/08/26 00:00:06;;;;;;;5.20;1.27;;;16.90;95.20;;;;;;5014389;28;20114;-77
2021/08/26 00:08:00;;;;;;;4.70;1.50;;;16.90;95.20;;;;;;5013764;28;20103;-77
2021/08/26 00:10:26;;;;;;;5.38;1.25;;;17.00;95.30;;;;;;5014439;28;20471;-78
2021/08/26 00:12:52;;;;;;;2.97;0.73;;;16.90;95.30;;;;;;4996764;28;20475;-78
2021/08/26 00:15:18;;;;;;;4.65;0.90;;;16.90;95.20;;;;;;5013081;28;20026;-78
2021/08/26 00:17:45;;;;;;;5.28;1.15;;;16.90;95.20;;;;;;5012780;28;20034;-77
2021/08/26 00:20:12;;;;;;;3.28;0.93;;;16.90;95.20;;;;;;5014221;28;20014;-78
2021/08/26 00:22:38;;;;;;;3.67;0.88;;;16.90;95.20;;;;;;5013630;28;20390;-78
2021/08/26 00:25:05;;;;;;;8.20;1.67;;;16.90;95.20;;;;;;5014007;28;20033;-78
2021/08/26 00:27:30;;;;;;;5.55;1.17;;;16.90;95.40;;;;;;5014009;28;20105;-77
2021/08/26 00:29:56;;;;;;;4.68;1.23;;;16.80;95.30;;;;;;4980203;28;20053;-78
2021/08/26 00:32:22;;;;;;;4.75;0.93;;;16.80;95.40;;;;;;4996316;28;20520;-77
2021/08/26 00:34:47;;;;;;;5.10;0.93;;;16.80;95.40;;;;;;5013936;28;20026;-78
2021/08/26 00:37:13;;;;;;;4.65;1.10;;;16.80;95.40;;;;;;4996173;28;20112;-78
2021/08/26 00:39:39;;;;;;;3.05;1.00;;;16.80;95.30;;;;;;5012455;28;20113;-78
2021/08/26 00:42:06;;;;;;;4.82;0.93;;;16.80;95.30;;;;;;5013791;28;20466;-77
2021/08/26 00:44:31;;;;;;;4.70;1.00;;;16.80;95.40;;;;;;5012335;28;20026;-77
2021/08/26 00:46:57;;;;;;;7.28;1.33;;;16.80;95.30;;;;;;5012493;28;20497;-79
2021/08/26 00:49:29;;;;;;;4.75;1.60;;;16.80;95.30;;;;;;5012583;28;20466;-78
2021/08/26 00:51:55;;;;;;;7.35;1.10;;;16.80;95.30;;;;;;4996916;28;20083;-79
2021/08/26 00:54:20;;;;;;;2.95;0.93;;;16.70;95.20;;;;;;5012512;28;20033;-78
2021/08/26 00:56:46;;;;;;;7.50;1.50;;;16.80;95.20;;;;;;5012442;28;20382;-79
2021/08/26 00:59:12;;;;;;;4.30;1.00;;;16.70;95.10;;;;;;5012373;28;20034;-78
2021/08/26 01:02:01;;;;;;;6.10;1.42;;;16.80;95.00;;;;;;4979753;28;20113;-78
2021/08/26 01:04:26;;;;;;;5.18;1.60;;;16.70;94.80;;;;;;5012291;28;20044;-77
2021/08/26 01:07:02;;;;;;;3.38;1.30;;;16.80;94.80;;;;;;5013512;28;20471;-78
2021/08/26 01:09:33;;;;;;;5.60;1.40;;;16.80;94.70;;;;;;5012289;28;20022;-78
2021/08/26 01:12:00;;;;;;;4.15;1.05;;;16.70;94.60;;;;;;5012274;28;20057;-78
2021/08/26 01:14:26;;;;;;;7.72;1.20;;;16.70;94.50;;;;;;5013491;28;20018;-78
2021/08/26 01:16:52;;;;;;;4.78;0.98;;;16.70;94.40;;;;;;5013729;28;20386;-78
2021/08/26 01:19:17;;;;;;;3.95;1.08;;;16.70;94.40;;;;;;4979426;28;20034;-78
2021/08/26 01:21:43;;;;;;;6.93;1.30;;;16.70;94.20;;;;;;5013349;28;20026;-77
2021/08/26 01:24:14;;;;;;;9.43;1.90;;;16.70;93.90;;;;;;5012159;28;20105;-78
2021/08/26 01:26:45;;;;;;;9.80;1.35;;;16.70;93.60;;;;;;5013398;28;20019;-77
2021/08/26 01:29:14;;;;;;;5.43;1.13;;;16.70;93.40;;;;;;5013339;28;20037;-78
2021/08/26 01:31:41;;;;;;;8.00;1.90;;;16.70;93.40;;;;;;5012001;28;20371;-78
2021/08/26 01:34:06;;;;;;;8.07;1.55;;;16.70;93.20;;;;;;4995755;28;20482;-77
2021/08/26 01:36:33;;;;;;;10.60;1.40;;;16.70;93.00;;;;;;5016657;28;20030;-77
2021/08/26 01:39:01;;;;;;;6.15;1.70;;;16.70;93.00;;;;;;5015936;28;20037;-78
2021/08/26 01:41:37;;;;;;;6.80;1.30;;;16.70;93.00;;;;;;5015707;28;20026;-78
2021/08/26 01:44:03;;;;;;;4.93;1.63;;;16.60;93.00;;;;;;5017045;28;20045;-78
2021/08/26 01:46:28;;;;;;;7.15;1.50;;;16.60;92.90;;;;;;5016739;28;20148;-78
2021/08/26 01:48:54;;;;;;;6.43;1.23;;;16.60;92.80;;;;;;5016007;28;20498;-78
2021/08/26 01:51:20;;;;;;;6.43;1.08;;;16.60;92.80;;;;;;5015573;28;20490;-77
2021/08/26 01:53:45;;;;;;;5.25;1.50;;;16.60;92.70;;;;;;5015690;28;20034;-77
2021/08/26 01:56:11;;;;;;;6.00;1.90;;;16.60;92.70;;;;;;5015647;28;20084;-78
2021/08/26 01:58:36;;;;;;;10.57;1.85;;;16.60;92.60;;;;;;4999202;28;20034;-78
2021/08/26 02:01:02;;;;;;;6.68;1.30;;;16.50;92.50;;;;;;4999082;28;20026;-78
2021/08/26 02:03:28;;;;;;;8.15;1.70;;;16.60;92.50;;;;;;5015454;28;20029;-78
2021/08/26 02:05:53;;;;;;;9.85;1.55;;;16.50;92.50;;;;;;5016845;28;20030;-77
2021/08/26 02:08:19;;;;;;;10.00;2.20;;;16.50;92.40;;;;;;4982863;28;20030;-77
2021/08/26 02:10:44;;;;;;;6.88;1.95;;;16.50;92.40;;;;;;5015362;28;20030;-77
2021/08/26 02:13:10;;;;;;;17.08;3.28;;;16.50;92.40;;;;;;4999025;28;20034;-77
2021/08/26 02:15:35;;;;;;;11.07;2.47;;;16.50;92.30;;;;;;5015082;28;20493;-77
2021/08/26 02:18:01;;;;;;;11.50;2.00;;;16.40;92.40;;;;;;5015112;28;20050;-77
2021/08/26 02:20:27;;;;;;;9.95;3.05;;;16.40;92.40;;;;;;4998800;28;20056;-77
2021/08/26 02:22:52;;;;;;;11.48;2.65;;;16.40;92.50;;;;;;5016309;28;20477;-78
2021/08/26 02:25:18;;;;;;;9.10;2.28;;;16.40;92.40;;;;;;4998806;28;20029;-78
2021/08/26 02:27:43;;;;;;;7.00;1.98;;;16.40;92.40;;;;;;4998774;28;20022;-78
2021/08/26 02:30:10;;;;;;;13.57;3.40;;;16.30;92.60;;;;;;4998600;28;20034;-78
2021/08/26 02:32:36;;;;;;;10.63;2.47;;;16.30;92.40;;;;;;5014964;28;20061;-78
2021/08/26 02:35:02;;;;;;;13.27;2.42;;;16.30;92.50;;;;;;5014820;28;20030;-78
2021/08/26 02:37:28;;;;;;;9.25;2.42;;;16.30;92.50;;;;;;5014744;28;20018;-78
2021/08/26 02:39:54;;;;;;;11.88;2.95;;;16.30;92.50;;;;;;5014686;28;20026;-77
2021/08/26 02:42:19;;;;;;;8.32;2.35;;;16.30;92.50;;;;;;5015999;28;20037;-77
2021/08/26 02:44:45;;;;;;;13.57;2.80;;;16.20;92.50;;;;;;5015641;28;20547;-78
2021/08/26 02:47:11;;;;;;;9.25;2.45;;;16.20;92.50;;;;;;5014094;28;20390;-77
2021/08/26 02:49:37;;;;;;;10.52;2.35;;;16.20;92.50;;;;;;5014563;28;20034;-77
2021/08/26 02:52:06;;;;;;;12.60;2.67;;;16.20;92.50;;;;;;5014682;28;20509;-77
2021/08/26 02:54:32;;;;;;;15.55;3.30;;;16.20;92.50;;;;;;5015885;28;20030;-77
2021/08/26 02:56:58;;;;;;;20.58;3.30;;;16.20;92.60;;;;;;5015601;28;20041;-77
2021/08/26 02:59:23;;;;;;;18.00;4.07;;;16.20;92.60;;;;;;5014256;28;20038;-77
2021/08/26 03:01:49;;;;;;;14.20;3.30;;;16.10;92.60;;;;;;5015563;28;20111;-77
2021/08/26 03:04:14;;;;;;;12.18;2.97;;;16.20;92.60;;;;;;5015596;28;20056;-77
2021/08/26 03:06:40;;;;;;;10.98;2.78;;;16.10;92.70;;;;;;5015532;28;20037;-77
2021/08/26 03:09:06;;;;;;;17.02;2.80;;;16.20;92.70;;;;;;4997917;28;20453;-77
2021/08/26 03:11:31;;;;;;;16.88;3.55;;;16.20;92.70;;;;;;5007863;28;20114;-78
2021/08/26 03:13:57;;;;;;;14.30;3.80;;;16.20;92.70;;;;;;4993410;28;20474;-78
2021/08/26 03:16:22;;;;;;;14.38;2.95;;;16.20;92.70;;;;;;4993275;28;20137;-77
2021/08/26 03:18:48;;;;;;;10.10;3.00;;;16.20;92.60;;;;;;4992765;28;20097;-78
2021/08/26 03:21:14;;;;;;;17.35;3.15;;;16.30;92.70;;;;;;4978198;28;20113;-78
2021/08/26 03:23:40;;;;;;;11.93;2.90;;;16.30;92.60;;;;;;4995594;28;20019;-78
2021/08/26 03:26:06;;;;;;;15.98;3.33;;;16.30;92.60;;;;;;4977148;28;20030;-78
2021/08/26 03:28:31;;;;;;;16.00;3.80;;;16.30;92.60;;;;;;4994064;28;20034;-78
2021/08/26 03:30:57;;;;;;;7.97;2.67;;;16.20;92.50;;;;;;4978355;28;20490;-78
2021/08/26 03:33:23;;;;;;;15.13;3.33;;;16.20;92.50;;;;;;4994070;28;20034;-77
2021/08/26 03:35:49;;;;;;;15.65;3.40;;;16.20;92.50;;;;;;4994047;28;20471;-78
2021/08/26 03:38:18;;;;;;;12.43;2.85;;;16.20;92.50;;;;;;4993969;28;20080;-78
2021/08/26 03:40:43;;;;;;;13.70;3.67;;;16.20;92.50;;;;;;4995233;28;20030;-78
2021/08/26 03:43:09;;;;;;;13.32;3.83;;;16.20;92.50;;;;;;4994023;28;20172;-77
2021/08/26 03:45:35;;;;;;;11.90;2.60;;;16.20;92.40;;;;;;4993743;28;20050;-78
2021/08/26 03:48:01;;;;;;;12.63;3.05;;;16.10;92.40;;;;;;4977777;28;20036;-77
2021/08/26 03:50:27;;;;;;;9.77;2.85;;;16.20;92.30;;;;;;4995241;28;20120;-78
2021/08/26 03:52:52;;;;;;;12.10;3.45;;;16.10;92.20;;;;;;4993554;28;20034;-78
2021/08/26 03:55:18;;;;;;;13.07;3.17;;;16.20;92.20;;;;;;4993832;28;20034;-78
2021/08/26 03:57:43;;;;;;;14.75;2.53;;;16.10;92.40;;;;;;4992749;28;20046;-78
2021/08/26 04:00:09;;;;;;;15.75;3.33;;;16.10;92.10;;;;;;4994888;28;20030;-78
2021/08/26 04:02:35;;;;;;;12.82;3.05;;;16.10;92.00;;;;;;4993558;28;20467;-78
2021/08/26 04:05:01;;;;;;;10.65;2.13;;;16.10;92.10;;;;;;4993597;28;20088;-78
2021/08/26 04:07:30;;;;;;;13.35;3.13;;;16.10;92.10;;;;;;4977548;28;20117;-77
2021/08/26 04:09:56;;;;;;;15.40;2.85;;;16.00;92.00;;;;;;4993629;28;20031;-78
2021/08/26 04:12:22;;;;;;;15.63;3.35;;;16.10;92.00;;;;;;5009703;28;20026;-78
2021/08/26 04:14:47;;;;;;;13.70;3.30;;;16.00;92.00;;;;;;4993391;28;20034;-77
2021/08/26 04:17:13;;;;;;;15.27;3.10;;;16.00;92.00;;;;;;4994783;28;20061;-78
2021/08/26 04:19:38;;;;;;;12.93;2.90;;;15.90;91.90;;;;;;4993600;28;20110;-78
2021/08/26 04:22:04;;;;;;;16.35;2.70;;;15.90;92.00;;;;;;4994568;28;20367;-78
2021/08/26 04:24:30;;;;;;;20.40;3.53;;;15.90;92.00;;;;;;4977024;28;20031;-78
2021/08/26 04:26:55;;;;;;;13.82;2.47;;;15.80;92.00;;;;;;4977058;28;20034;-78
2021/08/26 04:29:21;;;;;;;19.77;3.45;;;15.80;92.10;;;;;;4976909;28;20034;-78
2021/08/26 04:31:47;;;;;;;11.55;2.78;;;15.80;92.10;;;;;;4993138;28;20038;-78
2021/08/26 04:34:12;;;;;;;18.55;3.25;;;15.70;92.20;;;;;;4994385;28;20490;-77
2021/08/26 04:36:38;;;;;;;14.60;2.28;;;15.70;92.20;;;;;;4976885;28;20550;-78
2021/08/26 04:39:03;;;;;;;17.63;3.72;;;15.70;92.30;;;;;;4976716;28;20438;-78
2021/08/26 04:41:32;;;;;;;14.70;3.05;;;15.60;92.30;;;;;;4976518;28;20121;-77
2021/08/26 04:43:58;;;;;;;11.95;2.63;;;15.60;92.50;;;;;;4977307;28;20027;-77
2021/08/26 04:46:24;;;;;;;15.02;3.05;;;15.60;92.60;;;;;;4994143;28;20046;-76
2021/08/26 04:48:49;;;;;;;16.13;3.30;;;15.60;92.60;;;;;;4992913;28;20054;-77
2021/08/26 04:51:15;;;;;;;7.72;2.50;;;15.50;92.70;;;;;;4960418;28;20057;-77
2021/08/26 04:53:41;;;;;;;12.88;3.20;;;15.50;92.70;;;;;;4994105;28;20118;-76
2021/08/26 04:56:06;;;;;;;11.82;2.47;;;15.50;92.70;;;;;;4992683;28;20129;-77
2021/08/26 04:58:32;;;;;;;15.85;2.85;;;15.50;92.70;;;;;;4993742;28;20117;-78
2021/08/26 05:00:57;;;;;;;16.17;3.42;;;15.50;92.70;;;;;;4976409;28;20533;-77
2021/08/26 05:03:23;;;;;;;9.10;2.20;;;15.50;92.70;;;;;;4992588;28;20029;-78
2021/08/26 05:05:49;;;;;;;11.35;2.33;;;15.60;92.70;;;;;;4976434;28;20042;-78
2021/08/26 05:08:14;;;;;;;13.77;2.72;;;15.60;92.70;;;;;;4992612;28;20162;-78
2021/08/26 05:10:40;;;;;;;18.45;3.50;;;15.60;92.80;;;;;;4992250;28;20089;-78
2021/08/26 05:13:07;;;;;;;18.50;3.38;;;15.60;92.70;;;;;;4992497;28;20034;-78
2021/08/26 05:15:35;;;;;;;15.05;2.58;;;15.60;92.70;;;;;;4992392;28;20056;-77
2021/08/26 05:18:01;;;;;;;13.65;3.30;;;15.60;92.60;;;;;;4993609;28;20041;-78
2021/08/26 05:20:30;;;;;;;15.43;2.83;;;15.60;92.60;;;;;;4993343;28;20030;-80
2021/08/26 05:22:57;;;;;;;11.32;2.78;;;15.60;92.60;;;;;;4989126;28;20031;-78
2021/08/26 05:25:23;;;;;;;13.57;2.63;;;15.60;92.50;;;;;;4989576;28;20033;-79
2021/08/26 05:27:49;;;;;;;11.48;2.45;;;15.70;92.50;;;;;;5007497;28;20030;-78
2021/08/26 05:30:14;;;;;;;15.95;2.95;;;15.70;92.50;;;;;;4995126;28;20029;-76
2021/08/26 05:32:40;;;;;;;20.63;3.55;;;15.70;92.40;;;;;;5007283;28;20038;-76
2021/08/26 05:35:06;;;;;;;12.43;2.45;;;15.70;92.30;;;;;;5013418;28;20437;-80
2021/08/26 05:37:32;;;;;;;14.93;3.45;;;15.80;92.20;;;;;;5009025;28;20026;-78
2021/08/26 05:39:57;;;;;;;11.88;2.10;;;15.80;92.30;;;;;;5009098;28;20502;-78
2021/08/26 05:42:23;;;;;;;15.50;2.35;;;15.70;92.20;;;;;;5004938;28;20049;-78
2021/08/26 05:44:49;;;;;;;13.38;2.47;;;15.70;92.40;;;;;;5010520;28;20482;-79
2021/08/26 05:47:15;;;;;;;9.20;2.17;;;15.70;92.40;;;;;;4976432;28;20029;-77
2021/08/26 05:49:40;;;;;;;14.75;3.42;;;15.60;92.40;;;;;;4975757;28;20033;-79
2021/08/26 05:52:06;;;;;;;12.85;2.38;;;15.70;92.70;;;;;;5009382;28;20491;-77
2021/08/26 05:54:32;;;;;;;10.82;2.20;;;15.70;92.70;;;;;;5007193;28;20065;-77
2021/08/26 05:56:59;;;;;;;12.25;2.20;;;15.70;92.80;;;;;;5010961;28;20045;-77
2021/08/26 05:59:26;;;;;;;14.98;2.47;;;15.70;93.10;;;;;;4990624;28;20056;-78
2021/08/26 06:01:52;;;;;;;15.18;3.13;;;15.60;92.80;;;;;;5012091;28;20034;-78
2021/08/26 06:04:18;;;;;;;9.70;1.77;;;15.60;92.90;;;;;;5010884;28;20393;-77
2021/08/26 06:06:43;;;;;;;13.38;2.58;;;15.70;93.20;;;;;;5010997;28;20113;-77
2021/08/26 06:09:09;;;;;;;14.90;1.92;;;15.70;92.90;;;;;;5011429;28;20034;-77
2021/08/26 06:11:35;;;;;;;11.43;1.73;;;15.70;92.90;;;;;;5011677;28;20030;-77
2021/08/26 06:14:03;;;;;;;14.45;2.53;;;15.70;92.90;;;;;;5011849;28;20038;-77
2021/08/26 06:16:29;;;;;;;11.75;2.83;;;15.80;92.80;;;;;;5004605;28;20037;-77
2021/08/26 06:18:55;;;;;;;12.68;2.63;;;15.80;92.80;;;;;;5008528;28;20039;-77
2021/08/26 06:21:20;;;;;;;14.38;2.38;;;15.90;92.80;;;;;;4992936;28;20121;-78
2021/08/26 06:23:46;;;;;;;13.15;2.15;;;15.90;92.80;;;;;;4979643;28;20035;-78
2021/08/26 06:26:12;;;;;;;13.80;3.00;;;15.90;92.70;;;;;;4995807;28;20122;-78
2021/08/26 06:28:38;;;;;;;9.88;2.15;;;16.00;92.70;;;;;;4997188;28;20149;-78
2021/08/26 06:31:04;;;;;;;10.68;2.88;;;16.00;92.60;;;;;;4997242;28;20367;-78
2021/08/26 06:33:29;;;;;;;14.13;2.38;;;16.00;92.40;;;;;;4998779;28;20144;-78
2021/08/26 06:35:55;;;;;;;12.68;2.20;;;16.00;92.20;;;;;;5016348;28;20034;-79
2021/08/26 06:38:21;;;;;;;17.63;3.13;;;16.00;92.20;;;;;;5014823;28;20053;-78
2021/08/26 06:40:46;;;;;;;13.43;2.13;;;16.10;92.30;;;;;;5016243;28;20026;-77
2021/08/26 06:43:12;;;;;;;15.48;2.65;;;16.10;92.20;;;;;;5016141;28;20466;-76
2021/08/26 06:45:38;;;;;;;12.82;1.95;;;16.10;92.00;;;;;;5014390;28;20123;-75
2021/08/26 06:48:04;;;;;;;8.32;1.55;;;16.10;91.70;;;;;;5014927;28;20433;-77
2021/08/26 06:50:29;;;;;;;12.57;2.20;;;16.10;91.80;;;;;;5014853;28;20069;-78
2021/08/26 06:52:55;;;;;;;9.98;1.35;;;16.10;91.60;;;;;;5014515;28;20394;-76
2021/08/26 06:55:21;;;;;;;8.73;1.48;;;16.20;91.60;;;;;;5014374;28;20084;-76
2021/08/26 06:57:46;;;;;;;7.40;1.23;;;16.20;91.70;;;;;;5014694;28;20034;-77
2021/08/26 07:00:12;;;;;;;7.43;1.20;;;16.30;91.50;;;;;;5015947;28;20034;-76
2021/08/26 07:02:38;;;;;;;8.75;1.27;;;16.40;91.40;;;;;;5015587;28;20033;-75
2021/08/26 07:05:04;;;;;;;11.23;1.23;;;16.40;91.00;;;;;;5015739;28;20022;-76
2021/08/26 07:07:30;;;;;;;8.95;1.38;;;16.40;91.00;;;;;;5013988;28;20088;-75
2021/08/26 07:09:57;;;;;;;7.95;1.00;;;16.40;91.00;;;;;;5015851;28;20029;-77
2021/08/26 07:12:22;;;;;;;6.43;0.95;;;16.50;90.90;;;;;;5015886;28;20478;-76
2021/08/26 07:14:48;;;;;;;9.32;1.60;;;16.50;90.80;;;;;;5014267;28;20046;-75
2021/08/26 07:17:14;;;;;;;5.15;0.88;;;16.50;90.60;;;;;;5015539;28;20045;-76
2021/08/26 07:19:39;;;;;;;8.90;1.40;;;16.50;90.60;;;;;;4998127;28;20366;-75
2021/08/26 07:22:05;;;;;;;8.25;1.40;;;16.50;90.80;;;;;;5013942;28;20041;-75
2021/08/26 07:24:30;;;;;;;9.88;1.42;;;16.50;91.10;;;;;;5013973;28;20049;-75
2021/08/26 07:26:56;;;;;;;7.75;1.02;;;16.50;91.30;;;;;;5015631;28;20037;-77
2021/08/26 07:29:21;;;;;;;6.35;1.10;;;16.40;91.50;;;;;;4997935;28;20490;-76
2021/08/26 07:31:47;;;;;;;6.93;1.30;;;16.40;91.50;;;;;;5013374;28;20062;-76
2021/08/26 07:34:13;;;;;;;8.48;1.08;;;16.40;91.60;;;;;;5012881;28;20044;-76
2021/08/26 07:36:39;;;;;;;6.32;1.10;;;16.40;91.60;;;;;;5013494;28;20033;-75
2021/08/26 07:39:05;;;;;;;7.88;1.40;;;16.40;91.60;;;;;;5012728;28;20084;-77
2021/08/26 07:41:31;;;;;;;9.77;1.30;;;16.40;91.60;;;;;;5012924;28;20038;-77
2021/08/26 07:43:57;;;;;;;8.00;1.20;;;16.40;91.50;;;;;;5011800;28;20030;-77
2021/08/26 07:46:24;;;;;;;10.80;1.30;;;16.40;91.50;;;;;;5012883;28;20038;-75
2021/08/26 07:48:49;;;;;;;7.90;1.25;;;16.40;91.50;;;;;;4996989;28;20033;-76
2021/08/26 07:51:15;;;;;;;11.52;1.15;;;16.40;91.60;;;;;;5013710;28;20443;-75
2021/08/26 07:53:41;;;;;;;13.18;1.48;;;16.40;91.70;;;;;;5015118;28;20036;-77
2021/08/26 07:56:07;;;;;;;9.50;1.63;;;16.40;91.70;;;;;;5012440;28;20030;-76
2021/08/26 07:58:32;;;;;;;12.00;1.80;;;16.50;91.70;;;;;;5014467;28;20040;-77
2021/08/26 08:00:59;;;;;;;9.30;1.80;;;16.40;91.70;;;;;;5013361;28;20033;-77
2021/08/26 08:03:25;;;;;;;6.38;1.08;;;16.40;91.80;;;;;;5003646;28;20474;-77
2021/08/26 08:05:51;;;;;;;10.95;1.60;;;16.50;91.90;;;;;;4995453;28;20034;-76
2021/08/26 08:08:16;;;;;;;9.35;1.20;;;16.60;92.00;;;;;;5013965;28;20079;-78
2021/08/26 08:10:42;;;;;;;7.78;1.40;;;16.70;92.00;;;;;;4996412;28;20030;-78
2021/08/26 08:13:08;;;;;;;5.70;1.13;;;16.80;92.00;;;;;;5012840;28;20145;-78
2021/08/26 08:15:33;;;;;;;10.43;1.27;;;16.90;91.90;;;;;;5012922;28;20026;-76
2021/08/26 08:17:59;;;;;;;6.55;1.23;;;17.10;91.90;;;;;;5013630;28;20041;-76
2021/08/26 08:20:25;;;;;;;6.75;0.90;;;17.20;91.70;;;;;;5013483;28;20041;-77
2021/08/26 08:22:50;;;;;;;7.25;1.63;;;17.20;91.30;;;;;;5013807;28;20040;-77
2021/08/26 08:25:16;;;;;;;7.15;1.17;;;17.20;91.10;;;;;;5007635;28;20033;-77
2021/08/26 08:27:42;;;;;;;7.05;1.73;;;17.30;91.10;;;;;;5015977;28;20025;-77
2021/08/26 08:30:09;;;;;;;7.32;1.30;;;17.40;91.00;;;;;;5026399;28;20076;-77
2021/08/26 08:32:35;;;;;;;12.40;1.75;;;17.40;91.00;;;;;;5012571;28;20025;-77
2021/08/26 08:35:00;;;;;;;7.93;1.80;;;17.40;90.90;;;;;;4996417;28;20042;-76
2021/08/26 08:37:26;;;;;;;8.15;1.20;;;17.30;91.00;;;;;;5026095;28;20109;-76
2021/08/26 08:39:52;;;;;;;7.00;1.50;;;17.20;91.10;;;;;;5033278;28;20026;-75
2021/08/26 08:42:24;;;;;;;3.80;1.08;;;17.30;91.20;;;;;;5032292;28;20052;-77
2021/08/26 08:44:50;;;;;;;9.18;1.55;;;17.30;91.20;;;;;;5015603;28;20022;-75
2021/08/26 08:47:16;;;;;;;10.10;1.67;;;17.40;91.20;;;;;;5012281;28;20045;-76
2021/08/26 08:49:43;;;;;;;5.10;0.82;;;17.40;90.90;;;;;;5013350;28;20030;-78
2021/08/26 08:52:09;;;;;;;8.80;1.50;;;17.40;90.80;;;;;;5011164;28;20080;-77
2021/08/26 08:54:35;;;;;;;7.13;1.20;;;17.40;90.80;;;;;;4992552;28;20030;-76
2021/08/26 08:57:01;;;;;;;6.70;1.25;;;17.50;90.90;;;;;;4987719;28;20513;-77
2021/08/26 08:59:33;;;;;;;7.07;0.98;;;17.60;90.40;;;;;;5011800;28;20030;-77
2021/08/26 09:01:58;;;;;;;9.55;1.40;;;17.60;90.60;;;;;;5011463;28;20030;-77
2021/08/26 09:04:24;;;;;;;7.85;1.15;;;17.60;90.60;;;;;;5012195;28;20105;-77
2021/08/26 09:06:51;;;;;;;9.35;1.40;;;17.60;90.60;;;;;;5011895;28;20505;-76
2021/08/26 09:09:18;;;;;;;8.10;1.40;;;17.70;90.50;;;;;;5012140;28;20075;-76
2021/08/26 09:12:04;;;;;;;7.57;1.33;;;17.70;90.60;;;;;;5013405;28;20037;-76
2021/08/26 09:14:29;;;;;;;6.35;1.55;;;17.90;90.60;;;;;;5012122;28;20410;-77
2021/08/26 09:16:58;;;;;;;7.55;1.20;;;17.80;90.70;;;;;;5003501;28;20028;-75
2021/08/26 09:19:29;;;;;;;5.72;1.10;;;17.90;90.20;;;;;;5008496;28;20491;-76
2021/08/26 09:21:55;;;;;;;8.50;1.30;;;17.90;90.10;;;;;;5011316;28;20414;-78
2021/08/26 09:24:21;;;;;;;5.85;1.20;;;18.00;90.20;;;;;;5032811;28;20033;-76
2021/08/26 09:26:51;;;;;;;9.35;1.20;;;18.10;90.10;;;;;;5031751;28;20497;-75
2021/08/26 09:29:17;;;;;;;6.43;1.60;;;18.10;89.60;;;;;;4997350;28;20423;-75
2021/08/26 09:31:45;;;;;;;6.40;1.13;;;18.10;89.10;;;;;;5012440;28;20390;-76
2021/08/26 09:34:14;;;;;;;7.63;1.33;;;18.10;88.80;;;;;;4995142;28;20501;-75
2021/08/26 09:36:48;;;;;;;9.18;1.50;;;18.20;88.80;;;;;;5012204;28;20033;-74
2021/08/26 09:39:23;;;;;;;8.60;1.35;;;18.20;88.80;;;;;;5013327;28;20164;-75
2021/08/26 09:42:03;;;;;;;6.72;1.45;;;18.30;88.80;;;;;;5011046;28;20028;-75
2021/08/26 09:44:34;;;;;;;7.88;1.55;;;18.50;88.40;;;;;;5012611;28;20026;-74
2021/08/26 09:47:03;;;;;;;6.78;1.67;;;18.50;88.20;;;;;;5012973;28;20096;-77
2021/08/26 09:49:34;;;;;;;11.02;1.73;;;18.50;87.40;;;;;;5013344;28;20088;-76
2021/08/26 09:52:03;;;;;;;6.78;1.10;;;18.40;87.20;;;;;;5007258;28;20030;-75
2021/08/26 09:54:40;;;;;;;7.25;1.55;;;18.50;87.20;;;;;;5012198;28;20034;-76
2021/08/26 09:57:20;;;;;;;6.32;1.05;;;18.50;87.10;;;;;;5014299;28;20032;-75
2021/08/26 09:59:59;;;;;;;8.50;1.27;;;18.50;87.20;;;;;;5015454;28;20052;-77
2021/08/26 10:02:27;;;;;;;7.20;1.70;;;18.60;87.10;;;;;;5014105;28;20026;-75
2021/08/26 10:04:53;;;;;;;10.55;1.85;;;18.70;86.70;;;;;;5016942;28;20049;-76
2021/08/26 10:07:20;;;;;;;6.55;1.15;;;18.80;86.40;;;;;;5015938;28;20022;-76
2021/08/26 10:09:46;;;;;;;6.15;1.15;;;18.80;86.10;;;;;;4998500;28;20124;-77
2021/08/26 10:12:13;;;;;;;6.68;1.67;;;19.00;86.20;;;;;;5016347;28;20054;-77
2021/08/26 10:14:47;;;;;;;8.15;1.17;;;19.10;85.70;;;;;;5016945;28;20026;-76
2021/08/26 10:17:13;;;;;;;;;;;19.20;84.90;;;;;;5016979;28;20026;-76
2021/08/26 10:19:40;;;;;;;7.05;1.33;;;19.30;84.00;;;;;;5017155;28;19909;-77
2021/08/26 10:22:06;;;;;;;11.15;1.52;;;19.50;83.20;;;;;;5015448;28;20025;-76
2021/08/26 10:24:33;;;;;;;6.38;1.20;;;19.60;82.30;;;;;;5016861;28;20025;-76
2021/08/26 10:27:04;;;;;;;7.93;1.30;;;19.70;82.20;;;;;;5016847;28;20056;-77
2021/08/26 10:29:32;;;;;;;6.20;0.90;;;19.80;81.00;;;;;;5016482;28;20026;-77
2021/08/26 10:32:00;;;;;;;7.20;0.98;;;19.80;80.20;;;;;;5014844;28;20045;-77
2021/08/26 10:34:28;;;;;;;6.03;1.23;;;19.70;80.00;;;;;;5016045;28;20034;-78
2021/08/26 10:36:56;;;;;;;6.13;1.30;;;19.60;79.20;;;;;;5014927;28;20028;-78
2021/08/26 10:39:36;;;;;;;5.80;1.05;;;19.60;79.10;;;;;;5016289;28;20029;-77
2021/08/26 10:42:29;;;;;;;9.68;1.50;;;19.50;78.70;;;;;;5015977;28;20514;-81
2021/08/26 10:45:00;;;;;;;8.02;1.63;;;19.50;78.70;;;;;;5010145;28;20038;-80
2021/08/26 10:47:52;;;;;;;10.57;1.95;;;19.30;78.90;;;;;;5014788;28;20096;-83
2021/08/26 10:50:26;;;;;;;8.18;2.20;;;19.10;79.70;;;;;;5016761;28;20060;-80
2021/08/26 10:53:10;;;;;;;11.30;2.53;;;19.00;80.70;;;;;;5015852;28;20033;-76
2021/08/26 10:55:39;;;;;;;10.50;2.38;;;19.00;81.40;;;;;;5015805;28;20025;-75
2021/08/26 10:58:23;;;;;;;10.20;1.83;;;19.00;82.00;;;;;;5015793;28;20029;-77
2021/08/26 11:01:01;;;;;;;12.43;2.95;;;19.00;82.30;;;;;;5015986;28;20021;-75
2021/08/26 11:03:37;;;;;;;10.77;2.03;;;19.10;82.50;;;;;;5015738;28;20022;-81
2021/08/26 11:06:22;;;;;;;12.50;2.47;;;19.10;82.30;;;;;;5014594;28;20033;-80
2021/08/26 11:09:01;;;;;;;9.55;1.70;;;19.30;82.40;;;;;;5015511;28;20359;-80
2021/08/26 11:14:12;;;;;;;8.95;1.95;;;19.50;82.00;;;;;;5015484;28;20403;-81
2021/08/26 11:16:40;;;;;;;11.55;1.80;;;19.60;81.90;;;;;;5011702;28;20041;-76
2021/08/26 11:19:12;;;;;;;9.75;1.92;;;19.80;81.30;;;;;;5015345;28;20025;-82
2021/08/26 11:21:40;;;;;;;8.75;2.00;;;20.10;81.60;;;;;;5014266;28;20026;-75
2021/08/26 11:24:08;;;;;;;10.20;1.85;;;20.50;80.70;;;;;;5015473;28;20028;-77
2021/08/26 11:26:53;;;;;;;6.57;1.35;;;20.90;79.60;;;;;;4997608;28;20096;-76
2021/08/26 11:29:21;;;;;;;8.50;2.25;;;21.20;78.50;;;;;;5015210;28;20026;-77
2021/08/26 11:32:00;;;;;;;9.18;1.98;;;21.70;77.80;;;;;;5015043;28;20026;-76
2021/08/26 11:34:27;;;;;;;8.27;1.83;;;22.10;75.80;;;;;;5013959;28;20454;-77
2021/08/26 11:37:00;;;;;;;9.95;2.13;;;22.30;74.70;;;;;;5013688;28;20041;-76
2021/08/26 11:39:27;;;;;;;10.40;1.90;;;22.30;72.80;;;;;;5014636;28;20486;-77
2021/08/26 11:41:53;;;;;;;7.45;2.13;;;22.30;71.80;;;;;;4997360;28;20050;-77
2021/08/26 11:44:19;;;;;;;7.30;1.70;;;22.30;70.90;;;;;;4998001;28;20547;-76
2021/08/26 11:46:45;;;;;;;10.18;2.28;;;22.20;70.40;;;;;;5013495;28;20080;-79
2021/08/26 11:49:11;;;;;;;7.53;1.63;;;22.00;69.50;;;;;;5015023;28;20036;-75
2021/08/26 11:51:37;;;;;;;13.05;2.10;;;21.90;69.00;;;;;;5015145;28;20030;-77
2021/08/26 11:54:13;;;;;;;8.15;1.90;;;21.70;69.50;;;;;;5014594;28;20155;-76
2021/08/26 11:56:57;;;;;;;10.48;2.67;;;21.60;69.40;;;;;;5013383;28;20450;-77
2021/08/26 11:59:33;;;;;;;7.90;1.70;;;21.40;69.80;;;;;;4996839;28;20029;-78
2021/08/26 12:02:25;;;;;;;10.77;2.20;;;21.50;70.30;;;;;;5014768;28;20028;-79
2021/08/26 12:04:53;;;;;;;12.10;2.38;;;21.40;70.20;;;;;;5013353;28;20093;-76
2021/08/26 12:07:27;;;;;;;8.57;2.35;;;21.40;70.80;;;;;;5014769;28;20022;-76
2021/08/26 12:09:54;;;;;;;10.35;2.58;;;21.30;71.10;;;;;;5013430;28;20104;-77
2021/08/26 12:12:20;;;;;;;10.00;2.90;;;21.20;71.20;;;;;;5012919;28;20088;-76
2021/08/26 12:14:45;;;;;;;14.60;3.13;;;21.20;71.00;;;;;;5012940;28;20034;-76
2021/08/26 12:17:19;;;;;;;18.60;3.15;;;21.20;71.20;;;;;;5013041;28;20386;-77
2021/08/26 12:19:47;;;;;;;9.48;2.58;;;21.30;71.40;;;;;;5013570;28;20433;-77
2021/08/26 12:22:18;;;;;;;8.77;2.95;;;21.40;71.30;;;;;;5014147;28;20429;-77
2021/08/26 12:24:50;;;;;;;11.50;3.22;;;21.80;70.90;;;;;;5014032;28;20060;-77
2021/08/26 12:27:16;;;;;;;10.82;2.90;;;22.10;70.10;;;;;;5012973;28;20075;-77
2021/08/26 12:29:44;;;;;;;12.80;3.17;;;22.30;69.60;;;;;;5013916;28;20116;-76
2021/08/26 12:32:33;;;;;;;10.50;3.03;;;22.40;69.20;;;;;;5013932;28;20064;-75
2021/08/26 12:35:16;;;;;;;10.65;3.00;;;22.40;68.00;;;;;;5014158;28;20143;-79
2021/08/26 12:38:01;;;;;;;14.02;2.58;;;22.30;68.10;;;;;;5010484;28;20041;-78
2021/08/26 12:40:45;;;;;;;13.43;3.00;;;22.10;68.30;;;;;;4991008;28;20493;-77
2021/08/26 12:43:11;;;;;;;14.90;3.08;;;21.90;68.50;;;;;;5022292;28;20033;-76
2021/08/26 12:45:37;;;;;;;10.23;2.78;;;22.00;68.50;;;;;;5032270;28;20490;-79
2021/08/26 12:48:32;;;;;;;10.20;2.42;;;22.20;69.00;;;;;;5008649;28;20045;-78
2021/08/26 12:51:26;;;;;;;7.70;2.63;;;22.80;68.50;;;;;;5012218;28;20037;-77
2021/08/26 12:54:00;;;;;;;;;;;23.20;66.60;;;;;;5012763;28;20052;-78